createdAt,value
2023-11-04T00:02:10.712Z,98464.44
2023-11-04T00:04:39.923Z,98468.69
2023-11-04T00:07:06.844Z,98469.06
2023-11-04T00:09:42.466Z,98462.72
2023-11-04T00:12:17.825Z,98455.16
2023-11-04T00:14:45.139Z,98453.19
2023-11-04T00:17:12.091Z,98459.91
2023-11-04T00:19:39.048Z,98454.34
2023-11-04T00:22:06.050Z,98451.56
2023-11-04T00:24:33.124Z,98445.63
2023-11-04T00:27:00.558Z,98444.84
2023-11-04T00:29:27.779Z,98447.22
2023-11-04T00:31:55.036Z,98448.81
2023-11-04T00:34:22.076Z,98445.63
2023-11-04T00:36:49.121Z,98432.91
2023-11-04T00:39:16.094Z,98431.69
2023-11-04T00:41:45.046Z,98428.13
2023-11-04T00:44:12.002Z,98429.69
2023-11-04T00:46:39.990Z,98417.03
2023-11-04T00:49:07.068Z,98425.38
2023-11-04T00:51:34.245Z,98425.81
2023-11-04T00:54:01.137Z,98416.28
2023-11-04T00:56:28.268Z,98426.16
2023-11-04T00:58:55.415Z,98409.09
2023-11-04T01:01:22.812Z,98410.66
2023-11-04T01:03:50.042Z,98416.56
2023-11-04T01:06:18.426Z,98419.28
2023-11-04T01:08:46.136Z,98419.28
2023-11-04T01:11:13.273Z,98410.97
2023-11-04T01:13:40.544Z,98425.56
2023-11-04T01:16:08.108Z,98413.25
2023-11-04T01:18:35.090Z,98423.09
2023-11-04T01:21:02.351Z,98413.19
2023-11-04T01:23:29.279Z,98411.56
2023-11-04T01:25:56.404Z,98412.78
2023-11-04T01:28:23.230Z,98398.44
2023-11-04T01:30:50.242Z,98410.34
2023-11-04T01:33:17.534Z,98398.44
2023-11-04T01:35:44.930Z,98401.19
2023-11-04T01:38:11.782Z,98403.16
2023-11-04T01:40:38.775Z,98389.22
2023-11-04T01:43:05.875Z,98393.16
2023-11-04T01:45:32.786Z,98394.72
2023-11-04T01:47:59.789Z,98381.97
2023-11-04T01:50:27.546Z,98389.09
2023-11-04T01:52:54.624Z,98375.19
2023-11-04T01:55:21.642Z,98378.81
2023-11-04T01:57:48.785Z,98370.16
2023-11-04T02:00:16.520Z,98372.28
2023-11-04T02:02:44.545Z,98380.28
2023-11-04T02:05:12.122Z,98379.06
2023-11-04T02:07:39.274Z,98375.13
2023-11-04T02:10:07.867Z,98380.28
2023-11-04T02:12:35.320Z,98373.47
2023-11-04T02:15:02.256Z,98369.50
2023-11-04T02:17:29.349Z,98355.59
2023-11-04T02:20:01.913Z,98363.94
2023-11-04T02:22:29.318Z,98361.97
2023-11-04T02:24:56.997Z,98370.75
2023-11-04T02:27:24.027Z,98375.56
2023-11-04T02:29:51.376Z,98372.88
2023-11-04T02:32:18.403Z,98371.38
2023-11-04T02:34:45.756Z,98366.28
2023-11-04T02:37:12.837Z,98376.22
2023-11-04T02:39:39.741Z,98368.66
2023-11-04T02:42:06.808Z,98367.47
2023-11-04T02:44:34.316Z,98361.94
2023-11-04T02:47:01.248Z,98361.50
2023-11-04T02:49:28.102Z,98357.91
2023-11-04T02:52:04.125Z,98362.69
2023-11-04T02:54:36.178Z,98363.81
2023-11-04T02:57:04.391Z,98361.38
2023-11-04T02:59:31.907Z,98361.75
2023-11-04T03:01:58.798Z,98351.00
2023-11-04T03:04:27.341Z,98353.75
2023-11-04T03:06:54.433Z,98346.19
2023-11-04T03:09:21.542Z,98343.38
2023-11-04T03:11:48.681Z,98341.81
2023-11-04T03:14:16.246Z,98340.56
2023-11-04T03:16:43.620Z,98335.38
2023-11-04T03:19:10.887Z,98343.72
2023-11-04T03:21:37.944Z,98349.28
2023-11-04T03:24:05.114Z,98343.84
2023-11-04T03:26:32.059Z,98347.88
2023-11-04T03:28:58.940Z,98339.19
2023-11-04T03:31:26.048Z,98340.81
2023-11-04T03:33:53.189Z,98345.16
2023-11-04T03:36:20.232Z,98337.56
2023-11-04T03:38:47.247Z,98328.81
2023-11-04T03:41:14.120Z,98325.25
2023-11-04T03:43:41.136Z,98326.47
2023-11-04T03:46:08.423Z,98324.50
2023-11-04T03:48:36.201Z,98331.66
2023-11-04T03:51:03.540Z,98318.56
2023-11-04T03:53:30.555Z,98316.53
2023-11-04T03:55:57.743Z,98306.22
2023-11-04T03:58:24.900Z,98319.66
2023-11-04T04:00:51.875Z,98304.56
2023-11-04T04:03:18.923Z,98306.91
2023-11-04T04:05:45.976Z,98312.81
2023-11-04T04:08:12.945Z,98310.03
2023-11-04T04:10:39.946Z,98307.69
2023-11-04T04:13:07.062Z,98305.69
2023-11-04T04:15:34.233Z,98305.25
2023-11-04T04:18:01.343Z,98296.97
2023-11-04T04:20:30.344Z,98299.34
2023-11-04T04:22:57.201Z,98291.41
2023-11-04T04:25:24.195Z,98287.88
2023-11-04T04:27:51.116Z,98302.50
2023-11-04T04:30:18.212Z,98297.34
2023-11-04T04:32:46.313Z,98295.34
2023-11-04T04:35:13.562Z,98299.72
2023-11-04T04:37:40.485Z,98293.34
2023-11-04T04:40:08.234Z,98290.94
2023-11-04T04:42:35.147Z,98282.59
2023-11-04T04:45:02.194Z,98286.19
2023-11-04T04:47:29.092Z,98275.81
2023-11-04T04:49:56.018Z,98275.03
2023-11-04T04:52:23.002Z,98272.25
2023-11-04T04:54:49.953Z,98267.84
2023-11-04T04:57:17.016Z,98267.84
2023-11-04T04:59:43.852Z,98265.03
2023-11-04T05:02:10.762Z,98255.47
2023-11-04T05:04:38.019Z,98254.66
2023-11-04T05:07:04.975Z,98253.44
2023-11-04T05:09:31.858Z,98250.59
2023-11-04T05:11:58.869Z,98239.97
2023-11-04T05:14:25.839Z,98242.34
2023-11-04T05:16:52.728Z,98236.81
2023-11-04T05:19:21.298Z,98233.31
2023-11-04T05:21:48.368Z,98228.28
2023-11-04T05:24:15.630Z,98231.38
2023-11-04T05:26:42.662Z,98221.88
2023-11-04T05:29:12.484Z,98224.66
2023-11-04T05:31:39.578Z,98218.41
2023-11-04T05:34:07.625Z,98223.22
2023-11-04T05:36:34.753Z,98219.75
2023-11-04T05:39:02.003Z,98220.91
2023-11-04T05:41:29.279Z,98217.34
2023-11-04T05:43:56.200Z,98213.72
2023-11-04T05:46:23.247Z,98215.00
2023-11-04T05:48:50.212Z,98211.06
2023-11-04T05:51:26.812Z,98211.84
2023-11-04T05:53:54.280Z,98202.78
2023-11-04T05:56:21.561Z,98207.44
2023-11-04T05:58:49.164Z,98200.69
2023-11-04T06:01:16.355Z,98204.59
2023-11-04T06:03:43.696Z,98200.69
2023-11-04T06:06:10.948Z,98203.78
2023-11-04T06:08:38.017Z,98193.81
2023-11-04T06:11:05.249Z,98184.34
2023-11-04T06:13:32.290Z,98197.03
2023-11-04T06:15:59.184Z,98187.88
2023-11-04T06:18:26.316Z,98179.56
2023-11-04T06:20:53.295Z,98187.00
2023-11-04T06:23:20.403Z,98184.69
2023-11-04T06:25:47.398Z,98185.03
2023-11-04T06:28:14.421Z,98193.41
2023-11-04T06:30:41.457Z,98177.19
2023-11-04T06:33:08.473Z,98180.41
2023-11-04T06:35:35.565Z,98186.31
2023-11-04T06:38:03.280Z,98172.91
2023-11-04T06:40:30.465Z,98167.72
2023-11-04T06:42:57.587Z,98163.78
2023-11-04T06:45:24.739Z,98167.34
2023-11-04T06:47:51.878Z,98162.22
2023-11-04T06:50:18.870Z,98165.88
2023-11-04T06:52:45.887Z,98172.97
2023-11-04T06:55:14.399Z,98163.50
2023-11-04T06:57:41.473Z,98167.78
2023-11-04T07:00:09.884Z,98171.34
2023-11-04T07:02:36.816Z,98163.84
2023-11-04T07:05:04.066Z,98166.25
2023-11-04T07:07:31.410Z,98165.41
2023-11-04T07:09:58.506Z,98170.91
2023-11-04T07:12:25.799Z,98166.66
2023-11-04T07:14:52.772Z,98165.41
2023-11-04T07:17:19.797Z,98162.63
2023-11-04T07:19:47.964Z,98166.53
2023-11-04T07:22:15.090Z,98167.41
2023-11-04T07:24:42.092Z,98158.66
2023-11-04T07:27:09.621Z,98172.91
2023-11-04T07:29:36.738Z,98164.63
2023-11-04T07:32:06.270Z,98165.00
2023-11-04T07:34:34.907Z,98162.59
2023-11-04T07:37:02.319Z,98148.28
2023-11-04T07:39:29.900Z,98144.66
2023-11-04T07:41:58.109Z,98139.78
2023-11-04T07:44:25.610Z,98126.28
2023-11-04T07:46:52.570Z,98121.88
2023-11-04T07:49:19.495Z,98114.69
2023-11-04T07:51:47.994Z,98120.97
2023-11-04T07:54:15.193Z,98118.50
2023-11-04T07:56:42.410Z,98117.22
2023-11-04T07:59:09.471Z,98111.66
2023-11-04T08:01:36.733Z,98106.53
2023-11-04T08:04:05.358Z,98095.00
2023-11-04T08:06:32.348Z,98083.47
2023-11-04T08:08:59.332Z,98080.22
2023-11-04T08:11:26.296Z,98080.22
2023-11-04T08:13:55.572Z,98071.91
2023-11-04T08:16:22.717Z,98061.16
2023-11-04T08:18:50.514Z,98058.78
2023-11-04T08:21:17.667Z,98056.34
2023-11-04T08:23:44.765Z,98040.94
2023-11-04T08:26:11.861Z,98024.94
2023-11-04T08:28:39.107Z,98030.75
2023-11-04T08:31:06.277Z,98040.47
2023-11-04T08:33:33.839Z,98038.84
2023-11-04T08:36:00.883Z,98026.13
2023-11-04T08:38:29.267Z,98034.47
2023-11-04T08:40:56.600Z,98029.31
2023-11-04T08:43:24.043Z,98032.09
2023-11-04T08:45:51.150Z,98030.16
2023-11-04T08:48:18.353Z,98033.22
2023-11-04T08:50:45.548Z,98026.03
2023-11-04T08:53:12.685Z,98014.16
2023-11-04T08:55:39.777Z,98004.19
2023-11-04T08:58:06.893Z,97991.38
2023-11-04T09:00:33.859Z,98001.69
2023-11-04T09:03:02.175Z,98012.47
2023-11-04T09:05:33.597Z,98005.97
2023-11-04T09:08:02.206Z,98001.66
2023-11-04T09:10:29.149Z,98012.31
2023-11-04T09:12:56.676Z,98012.81
2023-11-04T09:15:23.660Z,98004.06
2023-11-04T09:17:50.908Z,98000.84
2023-11-04T09:20:18.055Z,97989.66
2023-11-04T09:22:46.015Z,97987.53
2023-11-04T09:25:12.994Z,97987.09
2023-11-04T09:27:40.048Z,97984.25
2023-11-04T09:30:08.640Z,97972.16
2023-11-04T09:32:36.114Z,97974.09
2023-11-04T09:35:04.303Z,97964.38
2023-11-04T09:37:31.394Z,97960.81
2023-11-04T09:39:58.659Z,97957.16
2023-11-04T09:42:28.663Z,97955.78
2023-11-04T09:44:58.928Z,97953.88
2023-11-04T09:47:27.397Z,97940.53
2023-11-04T09:49:54.656Z,97932.56
2023-11-04T09:52:23.131Z,97940.81
2023-11-04T09:54:51.148Z,97922.66
2023-11-04T09:57:18.274Z,97921.03
2023-11-04T09:59:46.004Z,97925.56
2023-11-04T10:02:15.791Z,97914.50
2023-11-04T10:04:42.840Z,97919.91
2023-11-04T10:07:10.058Z,97911.66
2023-11-04T10:09:38.567Z,97895.72
2023-11-04T10:12:05.802Z,97895.38
2023-11-04T10:14:32.901Z,97890.16
2023-11-04T10:17:00.134Z,97904.53
2023-11-04T10:19:27.588Z,97898.97
2023-11-04T10:21:54.580Z,97889.53
2023-11-04T10:24:22.557Z,97874.84
2023-11-04T10:26:49.626Z,97875.69
2023-11-04T10:29:16.607Z,97868.66
2023-11-04T10:31:43.932Z,97868.41
2023-11-04T10:34:13.609Z,97850.56
2023-11-04T10:36:40.793Z,97848.47
2023-11-04T10:39:10.137Z,97837.59
2023-11-04T10:41:55.307Z,97816.59
2023-11-04T10:44:38.134Z,97821.63
2023-11-04T10:47:21.605Z,97812.41
2023-11-04T10:50:07.828Z,97810.41
2023-11-04T10:52:37.882Z,97800.81
2023-11-04T10:55:14.276Z,97791.44
2023-11-04T10:57:50.042Z,97780.38
2023-11-04T11:00:21.514Z,97775.97
2023-11-04T11:02:50.282Z,97775.56
2023-11-04T11:05:23.542Z,97767.91
2023-11-04T11:07:50.847Z,97764.00
2023-11-04T11:10:21.513Z,97756.16
2023-11-04T11:13:09.288Z,97737.91
2023-11-04T11:15:36.804Z,97738.25
2023-11-04T11:18:04.906Z,97727.41
2023-11-04T11:20:33.360Z,97721.91
2023-11-04T11:23:12.323Z,97714.88
2023-11-04T11:25:41.057Z,97706.28
2023-11-04T11:28:20.854Z,97702.53
2023-11-04T11:31:00.231Z,97699.66
2023-11-04T11:33:31.240Z,97682.38
2023-11-04T11:36:03.471Z,97683.69
2023-11-04T11:38:32.260Z,97670.06
2023-11-04T11:41:07.396Z,97661.91
2023-11-04T11:43:34.779Z,97648.97
2023-11-04T11:46:01.882Z,97647.94
2023-11-04T11:48:29.905Z,97636.13
2023-11-04T11:50:57.235Z,97630.75
2023-11-04T11:53:24.220Z,97620.75
2023-11-04T11:56:00.954Z,97615.66
2023-11-04T11:58:29.375Z,97607.72
2023-11-04T12:01:00.198Z,97610.84
2023-11-04T12:03:28.944Z,97591.91
2023-11-04T12:05:56.077Z,97585.22
2023-11-04T12:08:24.143Z,97575.44
2023-11-04T12:10:51.288Z,97568.06
2023-11-04T12:13:18.606Z,97561.88
2023-11-04T12:15:46.408Z,97550.00
2023-11-04T12:18:14.272Z,97540.09
2023-11-04T12:20:45.382Z,97527.31
2023-11-04T12:23:13.555Z,97519.84
2023-11-04T12:25:43.057Z,97511.97
2023-11-04T12:28:10.984Z,97502.16
2023-11-04T12:30:38.235Z,97478.66
2023-11-04T12:33:05.723Z,97483.47
2023-11-04T12:35:35.747Z,97475.78
2023-11-04T12:38:02.773Z,97474.41
2023-11-04T12:40:31.121Z,97462.72
2023-11-04T12:43:03.557Z,97465.00
2023-11-04T12:45:31.654Z,97442.59
2023-11-04T12:47:58.917Z,97436.28
2023-11-04T12:50:26.296Z,97433.94
2023-11-04T12:52:54.688Z,97412.94
2023-11-04T12:55:22.061Z,97409.28
2023-11-04T12:57:49.489Z,97392.19
2023-11-04T13:00:16.655Z,97393.44
2023-11-04T13:02:43.992Z,97383.97
2023-11-04T13:05:11.333Z,97383.13
2023-11-04T13:07:39.089Z,97361.69
2023-11-04T13:10:07.197Z,97362.88
2023-11-04T13:12:34.572Z,97357.97
2023-11-04T13:15:01.606Z,97334.19
2023-11-04T13:17:28.601Z,97331.50
2023-11-04T13:19:55.842Z,97322.84
2023-11-04T13:22:22.815Z,97318.94
2023-11-04T13:24:49.946Z,97312.81
2023-11-04T13:27:17.103Z,97306.94
2023-11-04T13:29:44.448Z,97288.63
2023-11-04T13:32:11.647Z,97282.72
2023-11-04T13:34:38.987Z,97266.59
2023-11-04T13:37:06.525Z,97281.16
2023-11-04T13:39:33.674Z,97274.19
2023-11-04T13:42:00.570Z,97267.38
2023-11-04T13:44:27.778Z,97263.84
2023-11-04T13:46:54.706Z,97260.50
2023-11-04T13:49:21.930Z,97243.41
2023-11-04T13:51:48.946Z,97260.94
2023-11-04T13:54:16.027Z,97244.91
2023-11-04T13:56:43.064Z,97236.81
2023-11-04T13:59:10.166Z,97245.59
2023-11-04T14:01:37.924Z,97236.06
2023-11-04T14:04:05.476Z,97230.84
2023-11-04T14:06:32.787Z,97235.16
2023-11-04T14:09:01.427Z,97213.94
2023-11-04T14:11:28.827Z,97219.84
2023-11-04T14:13:55.760Z,97210.06
2023-11-04T14:16:22.834Z,97206.50
2023-11-04T14:18:50.058Z,97198.97
2023-11-04T14:21:17.265Z,97191.06
2023-11-04T14:23:44.164Z,97184.19
2023-11-04T14:26:11.173Z,97179.41
2023-11-04T14:28:39.121Z,97179.31
2023-11-04T14:31:06.585Z,97165.66
2023-11-04T14:33:33.792Z,97159.22
2023-11-04T14:36:00.853Z,97147.31
2023-11-04T14:38:27.899Z,97154.31
2023-11-04T14:40:54.810Z,97165.41
2023-11-04T14:43:21.821Z,97150.53
2023-11-04T14:45:49.922Z,97137.00
2023-11-04T14:48:17.095Z,97136.53
2023-11-04T14:50:44.323Z,97122.25
2023-11-04T14:53:11.388Z,97132.00
2023-11-04T14:55:38.394Z,97116.69
2023-11-04T14:58:05.496Z,97112.44
2023-11-04T15:00:32.760Z,97114.25
2023-11-04T15:03:00.148Z,97110.69
2023-11-04T15:05:27.319Z,97114.25
2023-11-04T15:07:54.365Z,97112.56
2023-11-04T15:10:22.359Z,97104.66
2023-11-04T15:12:49.392Z,97105.78
2023-11-04T15:15:16.685Z,97092.34
2023-11-04T15:17:43.755Z,97089.13
2023-11-04T15:20:10.971Z,97086.16
2023-11-04T15:22:38.054Z,97083.25
2023-11-04T15:25:07.561Z,97079.69
2023-11-04T15:27:34.600Z,97072.91
2023-11-04T15:30:02.338Z,97071.03
2023-11-04T15:32:29.442Z,97068.16
2023-11-04T15:34:56.642Z,97059.69
2023-11-04T15:37:24.306Z,97064.59
2023-11-04T15:39:52.860Z,97049.94
2023-11-04T15:42:20.207Z,97060.94
2023-11-04T15:44:47.642Z,97060.38
2023-11-04T15:47:14.671Z,97059.13
2023-11-04T15:49:41.958Z,97052.03
2023-11-04T15:52:09.239Z,97050.47
2023-11-04T15:54:36.404Z,97045.25
2023-11-04T15:57:03.530Z,97049.25
2023-11-04T15:59:30.796Z,97036.16
2023-11-04T16:01:59.097Z,97031.81
2023-11-04T16:04:26.105Z,97041.25
2023-11-04T16:06:53.291Z,97031.25
2023-11-04T16:09:20.315Z,97027.38
2023-11-04T16:11:48.284Z,97028.78
2023-11-04T16:14:16.136Z,97035.91
2023-11-04T16:16:43.198Z,97030.34
2023-11-04T16:19:10.570Z,97044.25
2023-11-04T16:21:37.660Z,97030.81
2023-11-04T16:24:06.865Z,97035.03
2023-11-04T16:26:34.994Z,97034.47
2023-11-04T16:29:02.125Z,97025.34
2023-11-04T16:31:29.312Z,97027.13
2023-11-04T16:33:56.638Z,97031.91
2023-11-04T16:36:23.565Z,97026.34
2023-11-04T16:38:50.567Z,97027.88
2023-11-04T16:41:17.652Z,97021.44
2023-11-04T16:43:44.861Z,97021.56
2023-11-04T16:46:11.875Z,97021.63
2023-11-04T16:48:39.280Z,97020.84
2023-11-04T16:51:06.776Z,97008.97
2023-11-04T16:53:34.034Z,97012.09
2023-11-04T16:56:00.967Z,97017.19
2023-11-04T16:58:28.011Z,97021.84
2023-11-04T17:00:56.509Z,97016.94
2023-11-04T17:03:23.943Z,97015.59
2023-11-04T17:05:51.178Z,97011.78
2023-11-04T17:08:18.067Z,97006.38
2023-11-04T17:10:45.176Z,97011.94
2023-11-04T17:13:12.503Z,97017.22
2023-11-04T17:15:42.647Z,97007.66
2023-11-04T17:18:09.985Z,97011.41
2023-11-04T17:20:37.355Z,97006.44
2023-11-04T17:23:04.398Z,97002.09
2023-11-04T17:25:31.483Z,97002.88
2023-11-04T17:27:58.722Z,96999.31
2023-11-04T17:30:25.678Z,97000.66
2023-11-04T17:32:52.734Z,96994.31
2023-11-04T17:35:19.680Z,96996.34
2023-11-04T17:37:50.973Z,96991.91
2023-11-04T17:40:19.139Z,96997.00
2023-11-04T17:42:46.593Z,96988.97
2023-11-04T17:45:16.826Z,96986.19
2023-11-04T17:47:44.100Z,96996.88
2023-11-04T17:50:11.695Z,96990.22
2023-11-04T17:52:40.312Z,96977.28
2023-11-04T17:55:07.695Z,96990.75
2023-11-04T17:57:34.737Z,96980.06
2023-11-04T18:00:01.725Z,96983.28
2023-11-04T18:02:40.027Z,96986.72
2023-11-04T18:05:09.268Z,96986.06
2023-11-04T18:07:37.228Z,96974.28
2023-11-04T18:10:05.204Z,96989.63
2023-11-04T18:12:32.593Z,96987.63
2023-11-04T18:14:59.757Z,96992.72
2023-11-04T18:17:26.802Z,96991.31
2023-11-04T18:19:53.887Z,96990.53
2023-11-04T18:22:21.060Z,96986.00
2023-11-04T18:24:49.658Z,96984.00
2023-11-04T18:27:19.042Z,96973.34
2023-11-04T18:29:50.119Z,96989.56
2023-11-04T18:32:17.170Z,96988.34
2023-11-04T18:34:44.207Z,96986.13
2023-11-04T18:37:11.136Z,96987.56
2023-11-04T18:39:39.028Z,96981.53
2023-11-04T18:42:06.117Z,96985.25
2023-11-04T18:44:33.279Z,96980.13
2023-11-04T18:47:01.008Z,96984.00
2023-11-04T18:49:28.870Z,96977.03
2023-11-04T18:51:55.988Z,96982.47
2023-11-04T18:54:22.913Z,96978.13
2023-11-04T18:56:49.956Z,96979.34
2023-11-04T18:59:16.916Z,96971.91
2023-11-04T19:01:43.917Z,96964.03
2023-11-04T19:04:10.906Z,96963.13
2023-11-04T19:06:38.540Z,96965.00
2023-11-04T19:09:06.315Z,96971.78
2023-11-04T19:11:33.397Z,96975.34
2023-11-04T19:14:00.366Z,96970.56
2023-11-04T19:16:27.429Z,96980.91
2023-11-04T19:18:55.071Z,96980.91
2023-11-04T19:21:22.380Z,96984.56
2023-11-04T19:23:49.812Z,96991.81
2023-11-04T19:26:17.125Z,96992.69
2023-11-04T19:28:44.129Z,96986.94
2023-11-04T19:31:11.395Z,96978.28
2023-11-04T19:33:38.388Z,96988.97
2023-11-04T19:36:06.595Z,96988.19
2023-11-04T19:38:33.618Z,96975.19
2023-11-04T19:41:00.592Z,96975.81
2023-11-04T19:43:27.701Z,96983.84
2023-11-04T19:45:54.679Z,96976.75
2023-11-04T19:48:21.751Z,96980.63
2023-11-04T19:50:48.965Z,96988.97
2023-11-04T19:53:15.949Z,96998.06
2023-11-04T19:55:43.048Z,96993.44
2023-11-04T19:58:09.993Z,97002.19
2023-11-04T20:00:36.917Z,96996.00
2023-11-04T20:05:31.944Z,96996.88
2023-11-04T20:07:59.163Z,97001.78
2023-11-04T20:10:26.110Z,96995.00
2023-11-04T20:12:53.254Z,97003.34
2023-11-04T20:15:22.573Z,97004.34
2023-11-04T20:17:50.993Z,97005.47
2023-11-04T20:20:18.046Z,97010.09
2023-11-04T20:22:45.138Z,97013.34
2023-11-04T20:25:12.799Z,97007.00
2023-11-04T20:27:39.804Z,97005.47
2023-11-04T20:30:07.409Z,97014.69
2023-11-04T20:32:34.553Z,97016.00
2023-11-04T20:35:01.716Z,97012.59
2023-11-04T20:37:30.503Z,97020.81
2023-11-04T20:39:57.414Z,97014.69
2023-11-04T20:42:24.710Z,97026.00
2023-11-04T20:44:51.746Z,97024.59
2023-11-04T20:47:19.185Z,97026.47
2023-11-04T20:49:46.064Z,97026.00
2023-11-04T20:52:13.124Z,97027.13
2023-11-04T20:54:40.218Z,97019.25
2023-11-04T20:57:07.397Z,97024.34
2023-11-04T20:59:34.527Z,97022.03
2023-11-04T21:02:01.759Z,97022.13
2023-11-04T21:04:29.104Z,97025.38
2023-11-04T21:06:57.295Z,97025.38
2023-11-04T21:09:25.492Z,97026.16
2023-11-04T21:11:52.995Z,97029.00
2023-11-04T21:14:19.991Z,97023.47
2023-11-04T21:16:47.472Z,97024.13
2023-11-04T21:19:14.889Z,97017.22
2023-11-04T21:21:41.912Z,97029.53
2023-11-04T21:24:09.436Z,97024.16
2023-11-04T21:26:40.977Z,97025.63
2023-11-04T21:29:09.121Z,97027.72
2023-11-04T21:31:38.182Z,97040.72
2023-11-04T21:34:05.297Z,97032.38
2023-11-04T21:36:32.376Z,97021.72
2023-11-04T21:38:59.594Z,97025.94
2023-11-04T21:41:26.777Z,97029.81
2023-11-04T21:43:53.706Z,97026.25
2023-11-04T21:46:21.166Z,97035.38
2023-11-04T21:48:48.369Z,97027.81
2023-11-04T21:51:15.434Z,97025.47
2023-11-04T21:53:43.205Z,97018.50
2023-11-04T21:56:10.423Z,97029.16
2023-11-04T21:58:37.367Z,97022.25
2023-11-04T22:01:06.911Z,97011.94
2023-11-04T22:03:34.723Z,97017.47
2023-11-04T22:06:01.979Z,97017.81
2023-11-04T22:08:28.966Z,97017.47
2023-11-04T22:10:56.127Z,97016.69
2023-11-04T22:13:23.314Z,97007.25
2023-11-04T22:15:50.406Z,97012.09
2023-11-04T22:18:17.434Z,97011.94
2023-11-04T22:20:44.509Z,97018.25
2023-11-04T22:23:11.562Z,97021.59
2023-11-04T22:25:39.045Z,97026.94
2023-11-04T22:28:06.582Z,97019.97
2023-11-04T22:30:33.640Z,97023.78
2023-11-04T22:33:00.550Z,97019.69
2023-11-04T22:35:27.575Z,97020.25
2023-11-04T22:37:54.611Z,97020.03
2023-11-04T22:40:21.717Z,97018.22
2023-11-04T22:42:48.932Z,97014.34
2023-11-04T22:45:16.220Z,97023.69
2023-11-04T22:47:43.686Z,97019.50
2023-11-04T22:50:11.372Z,97019.13
2023-11-04T22:52:38.912Z,97025.72
2023-11-04T22:55:06.770Z,97018.03
2023-11-04T22:57:33.658Z,97022.38
2023-11-04T23:00:00.703Z,97022.84
2023-11-04T23:02:27.699Z,97028.03
2023-11-04T23:04:54.848Z,97021.38
2023-11-04T23:07:22.115Z,97017.94
2023-11-04T23:09:49.544Z,97017.06
2023-11-04T23:12:18.153Z,97010.84
2023-11-04T23:14:45.175Z,97020.19
2023-11-04T23:17:12.147Z,97019.81
2023-11-04T23:19:39.247Z,97017.16
2023-11-04T23:22:06.137Z,97019.03
2023-11-04T23:24:33.395Z,97022.72
2023-11-04T23:27:02.148Z,97017.25
2023-11-04T23:29:30.286Z,97011.72
2023-11-04T23:31:57.180Z,97024.16
2023-11-04T23:34:24.187Z,97018.69
2023-11-04T23:36:51.189Z,97021.84
2023-11-04T23:39:18.199Z,97015.50
2023-11-04T23:41:45.334Z,97022.94
2023-11-04T23:44:12.338Z,97024.16
2023-11-04T23:46:39.277Z,97019.38
2023-11-04T23:49:06.467Z,97011.16
2023-11-04T23:51:33.413Z,96997.25
2023-11-04T23:54:00.328Z,97004.97
2023-11-04T23:56:31.164Z,97005.63
2023-11-04T23:58:58.049Z,97006.19
